ミラノ/マルペンサ の空港の天気 - METARとTAF

ミラノ・マルペンサ国際空港 ( LIMC / MXP ) - イタリア ミラノ
飛行場実況気象(Metar)
観測時間10/22 16:50 CEST (10/22 14:50 UTC)
風向・風速南南西 2m/s
視程10km以上
天気現象霧雨
全天の8割程度の雲 雲底高度 1520m
気温14℃
湿度82%
気圧1023hPa
METARLIMC 221450Z 20003KT 170V230 9999 DZ BKN050 14/11 Q1023 NOSIG
過去の天気等 Google飛行場航空写真 Wunderground天気予報

過去48時間のMETAR

飛行場予報(TAF)
発表時間: 10/22 13:00 CEST (10/22 11:00 UTC)
予報対象時間: 22日14時 CEST ~ 23日20時 CEST
風向・風速不定 3m/s
視程10km以上
全天の8割程度の雲 雲底高度 1520m
22日16時 CEST ~ 22日22時 CEST に一時的に
天気現象
23日2時 CEST ~ 23日10時 CEST に一時的に
視程3000m
天気現象もや
23日10時 CEST ~ 23日20時 CEST に一時的に
視程4000m
天気現象
TAF LIMC 221100Z 2212/2318 VRB05KT 9999 BKN050
TEMPO 2214/2220 RA
TEMPO 2300/2308 3000 BR
TEMPO 2308/2318 4000 RA